createdAt,value
2024-05-09T00:00:02.319Z,12.67
2024-05-09T00:02:54.894Z,10.43
2024-05-09T00:05:42.028Z,15.07
2024-05-09T00:08:28.900Z,9.13
2024-05-09T00:11:16.417Z,12.10
2024-05-09T00:14:03.074Z,11.40
2024-05-09T00:16:49.756Z,9.73
2024-05-09T00:19:36.394Z,9.93
2024-05-09T00:22:22.848Z,11.10
2024-05-09T00:25:09.573Z,13.20
2024-05-09T00:27:56.154Z,10.77
2024-05-09T00:30:42.810Z,10.07
2024-05-09T00:33:29.662Z,8.70
2024-05-09T00:36:16.145Z,10.63
2024-05-09T00:39:02.792Z,11.17
2024-05-09T00:41:49.600Z,10.27
2024-05-09T00:44:36.292Z,11.67
2024-05-09T00:47:24.047Z,8.87
2024-05-09T00:50:15.992Z,13.00
2024-05-09T00:53:12.140Z,11.07
2024-05-09T00:55:59.317Z,12.00
2024-05-09T00:58:45.597Z,12.60
2024-05-09T01:01:32.389Z,11.20
2024-05-09T01:04:19.019Z,10.97
2024-05-09T01:07:05.512Z,11.47
2024-05-09T01:09:52.084Z,11.77
2024-05-09T01:12:39.118Z,12.13
2024-05-09T01:15:25.511Z,12.40
2024-05-09T01:18:13.526Z,12.73
2024-05-09T01:21:00.594Z,12.20
2024-05-09T01:23:47.216Z,12.67
2024-05-09T01:26:33.965Z,13.07
2024-05-09T01:29:20.598Z,9.80
2024-05-09T01:32:07.448Z,11.97
2024-05-09T01:34:53.818Z,10.83
2024-05-09T01:37:40.399Z,10.10
2024-05-09T01:40:36.364Z,13.30
2024-05-09T01:43:25.777Z,16.57
2024-05-09T01:46:16.515Z,12.63
2024-05-09T01:49:04.539Z,10.23
2024-05-09T01:51:51.185Z,9.37
2024-05-09T01:54:37.859Z,9.23
2024-05-09T01:57:24.455Z,9.27
2024-05-09T02:00:15.652Z,9.13
2024-05-09T02:03:02.538Z,10.43
2024-05-09T02:05:52.473Z,13.20
2024-05-09T02:08:39.524Z,12.43
2024-05-09T02:11:26.319Z,10.27
2024-05-09T02:14:13.130Z,10.47
2024-05-09T02:16:59.425Z,13.83
2024-05-09T02:19:46.056Z,9.13
2024-05-09T02:22:32.863Z,10.13
2024-05-09T02:25:21.218Z,13.63
2024-05-09T02:28:08.126Z,15.40
2024-05-09T02:30:54.638Z,9.33
2024-05-09T02:33:41.287Z,12.27
2024-05-09T02:36:27.792Z,12.77
2024-05-09T02:39:14.600Z,11.93
2024-05-09T02:42:01.139Z,12.60
2024-05-09T02:44:47.796Z,10.17
2024-05-09T02:47:34.669Z,10.30
2024-05-09T02:50:29.705Z,13.43
2024-05-09T02:53:23.422Z,11.93
2024-05-09T02:56:10.078Z,11.97
2024-05-09T02:58:56.870Z,9.13
2024-05-09T03:01:43.228Z,8.73
2024-05-09T03:04:29.646Z,12.63
2024-05-09T03:07:17.825Z,11.50
2024-05-09T03:10:12.205Z,11.80
2024-05-09T03:13:08.460Z,11.47
2024-05-09T03:15:55.033Z,16.70
2024-05-09T03:18:41.727Z,11.50
2024-05-09T03:21:28.336Z,15.03
2024-05-09T03:24:14.907Z,12.00
2024-05-09T03:27:02.500Z,13.23
2024-05-09T03:29:48.915Z,11.43
2024-05-09T03:32:35.651Z,11.80
2024-05-09T03:35:22.081Z,25.17
2024-05-09T03:38:08.723Z,18.23
2024-05-09T03:40:55.318Z,14.80
2024-05-09T03:43:41.946Z,13.20
2024-05-09T03:46:28.767Z,12.03
2024-05-09T03:49:15.513Z,11.43
2024-05-09T03:52:05.093Z,13.87
2024-05-09T03:54:51.739Z,11.63
2024-05-09T03:57:38.422Z,9.47
2024-05-09T04:00:31.576Z,15.00
2024-05-09T04:03:24.724Z,10.77
2024-05-09T04:06:11.915Z,11.00
2024-05-09T04:08:58.458Z,10.50
2024-05-09T04:11:45.184Z,12.57
2024-05-09T04:14:31.828Z,9.67
2024-05-09T04:17:18.413Z,11.50
2024-05-09T04:20:08.323Z,11.50
2024-05-09T04:22:54.786Z,11.00
2024-05-09T04:25:43.846Z,14.47
2024-05-09T04:28:30.198Z,10.40
2024-05-09T04:31:16.689Z,11.50
2024-05-09T04:34:03.461Z,11.60
2024-05-09T04:36:49.760Z,10.90
2024-05-09T04:39:36.474Z,11.53
2024-05-09T04:42:23.025Z,11.53
2024-05-09T04:45:09.591Z,10.30
2024-05-09T04:47:56.538Z,12.13
2024-05-09T04:50:43.542Z,12.57
2024-05-09T04:53:29.945Z,12.60
2024-05-09T04:56:16.700Z,10.93
2024-05-09T04:59:03.387Z,11.40
2024-05-09T05:01:50.020Z,10.07
2024-05-09T05:04:36.653Z,13.07
2024-05-09T05:07:23.372Z,11.37
2024-05-09T05:10:14.893Z,13.77
2024-05-09T05:13:21.002Z,11.40
2024-05-09T05:16:09.133Z,8.60
2024-05-09T05:18:56.374Z,6.77
2024-05-09T05:21:43.134Z,7.87
2024-05-09T05:24:29.617Z,6.33
2024-05-09T05:27:16.809Z,6.83
2024-05-09T05:30:04.618Z,7.07
2024-05-09T05:32:52.683Z,6.17
2024-05-09T05:35:39.784Z,7.13
2024-05-09T05:38:28.187Z,8.00
2024-05-09T05:41:15.441Z,7.43
2024-05-09T05:44:01.864Z,9.23
2024-05-09T05:46:48.537Z,6.40
2024-05-09T05:49:35.291Z,8.30
2024-05-09T05:52:21.692Z,10.67
2024-05-09T05:55:08.171Z,8.43
2024-05-09T05:57:54.836Z,9.80
2024-05-09T06:00:42.678Z,9.67
2024-05-09T06:03:29.686Z,10.03
2024-05-09T06:06:16.223Z,8.97
2024-05-09T06:09:02.815Z,12.07
2024-05-09T06:11:49.571Z,16.37
2024-05-09T06:14:36.219Z,12.67
2024-05-09T06:17:22.771Z,15.90
2024-05-09T06:20:13.464Z,13.53
2024-05-09T06:23:07.206Z,11.67
2024-05-09T06:25:53.670Z,11.60
2024-05-09T06:28:40.345Z,12.53
2024-05-09T06:31:26.823Z,11.07
2024-05-09T06:34:13.646Z,13.13
2024-05-09T06:37:00.045Z,11.83
2024-05-09T06:39:46.768Z,14.10
2024-05-09T06:42:33.229Z,11.27
2024-05-09T06:45:19.923Z,13.77
2024-05-09T06:48:07.444Z,13.53
2024-05-09T06:50:54.241Z,13.97
2024-05-09T06:53:40.921Z,11.70
2024-05-09T06:56:27.217Z,11.20
2024-05-09T06:59:13.785Z,12.17
2024-05-09T07:02:00.499Z,13.60
2024-05-09T07:04:47.344Z,14.00
2024-05-09T07:07:33.651Z,11.80
2024-05-09T07:10:28.509Z,9.00
2024-05-09T07:13:19.011Z,12.00
2024-05-09T07:16:05.505Z,11.90
2024-05-09T07:18:55.050Z,10.07
2024-05-09T07:21:41.480Z,9.50
2024-05-09T07:24:28.204Z,10.13
2024-05-09T07:27:15.036Z,10.40
2024-05-09T07:30:01.580Z,11.27
2024-05-09T07:32:48.322Z,11.43
2024-05-09T07:35:35.825Z,10.67
2024-05-09T07:38:22.582Z,11.13
2024-05-09T07:41:09.142Z,9.60
2024-05-09T07:43:55.918Z,10.03
2024-05-09T07:53:30.360Z,11.50
2024-05-09T07:55:29.177Z,8.77
2024-05-09T07:58:15.693Z,8.17
2024-05-09T08:01:05.274Z,8.97
2024-05-09T08:03:53.963Z,8.50
2024-05-09T08:06:40.248Z,10.30
2024-05-09T08:09:26.849Z,9.47
2024-05-09T08:12:14.210Z,8.27
2024-05-09T08:15:00.863Z,7.37
2024-05-09T08:17:47.757Z,7.37
2024-05-09T08:20:35.455Z,6.20
2024-05-09T08:23:23.597Z,6.60
2024-05-09T08:26:11.055Z,6.70
2024-05-09T08:28:57.754Z,9.23
2024-05-09T08:31:44.407Z,4.90
2024-05-09T08:34:30.776Z,6.13
2024-05-09T08:37:22.378Z,7.17
2024-05-09T08:40:19.906Z,5.83
2024-05-09T08:43:15.336Z,5.23
2024-05-09T08:46:02.728Z,6.43
2024-05-09T08:48:50.286Z,6.73
2024-05-09T08:51:36.763Z,5.47
2024-05-09T08:54:23.294Z,4.10
2024-05-09T08:57:09.931Z,5.70
2024-05-09T09:00:00.486Z,4.10
2024-05-09T09:02:49.928Z,4.60
2024-05-09T09:05:38.905Z,4.37
2024-05-09T09:08:26.997Z,4.57
2024-05-09T09:11:13.643Z,5.83
2024-05-09T09:14:00.163Z,4.83
2024-05-09T09:16:46.728Z,6.13
2024-05-09T09:19:33.268Z,6.83
2024-05-09T09:22:21.693Z,5.73
2024-05-09T09:25:07.958Z,5.20
2024-05-09T09:27:54.332Z,4.77
2024-05-09T09:30:41.640Z,3.47
2024-05-09T09:33:31.255Z,5.13
2024-05-09T09:36:18.481Z,5.37
2024-05-09T09:39:05.300Z,4.90
2024-05-09T09:41:52.576Z,3.97
2024-05-09T09:44:42.275Z,3.80
2024-05-09T09:47:32.598Z,5.33
2024-05-09T09:50:27.343Z,5.17
2024-05-09T09:53:19.505Z,5.50
2024-05-09T09:56:08.049Z,3.87
2024-05-09T09:58:57.616Z,5.27
2024-05-09T10:01:47.377Z,4.87
2024-05-09T10:04:33.829Z,5.17
2024-05-09T10:07:22.238Z,3.27
2024-05-09T10:10:13.769Z,4.27
2024-05-09T10:13:05.878Z,4.87
2024-05-09T10:15:54.679Z,7.10
2024-05-09T10:18:41.803Z,6.10
2024-05-09T10:21:28.762Z,3.13
2024-05-09T10:24:18.908Z,5.47
2024-05-09T10:27:05.208Z,4.47
2024-05-09T10:29:53.227Z,3.20
2024-05-09T10:32:41.244Z,3.90
2024-05-09T10:35:32.537Z,5.80
2024-05-09T10:38:18.848Z,8.90
2024-05-09T10:41:06.726Z,3.13
2024-05-09T10:43:53.213Z,4.23
2024-05-09T10:46:39.815Z,3.53
2024-05-09T10:49:26.491Z,2.70
2024-05-09T10:52:13.038Z,3.37
2024-05-09T10:55:01.042Z,3.20
2024-05-09T10:57:48.230Z,9.20
2024-05-09T11:00:36.524Z,3.73
2024-05-09T11:03:24.768Z,3.40
2024-05-09T11:06:11.890Z,4.40
2024-05-09T11:08:58.533Z,4.10
2024-05-09T11:11:45.388Z,3.33
2024-05-09T11:14:32.184Z,4.73
2024-05-09T11:17:19.181Z,2.30
2024-05-09T11:20:13.396Z,3.13
2024-05-09T11:23:09.311Z,3.13
2024-05-09T11:25:57.956Z,2.60
2024-05-09T11:28:45.688Z,3.37
2024-05-09T11:31:32.761Z,2.73
2024-05-09T11:34:19.413Z,3.10
2024-05-09T11:37:05.762Z,3.43
2024-05-09T11:39:53.854Z,4.63
2024-05-09T11:42:40.527Z,5.77
2024-05-09T11:45:27.110Z,3.43
2024-05-09T11:48:13.823Z,3.20
2024-05-09T11:51:00.342Z,4.33
2024-05-09T11:53:46.964Z,5.37
2024-05-09T11:56:33.626Z,3.93
2024-05-09T11:59:19.881Z,3.37
2024-05-09T12:02:06.555Z,6.37
2024-05-09T12:04:53.074Z,3.27
2024-05-09T12:07:39.834Z,2.83
2024-05-09T12:10:32.489Z,3.63
2024-05-09T12:13:21.682Z,2.80
2024-05-09T12:16:08.811Z,4.20
2024-05-09T12:18:56.215Z,4.23
2024-05-09T12:21:42.605Z,2.37
2024-05-09T12:24:30.501Z,2.73
2024-05-09T12:27:16.790Z,4.00
2024-05-09T12:30:04.630Z,2.40
2024-05-09T12:32:53.573Z,2.83
2024-05-09T12:35:41.094Z,3.93
2024-05-09T12:38:28.188Z,4.40
2024-05-09T12:41:14.864Z,4.37
2024-05-09T12:44:01.421Z,5.97
2024-05-09T12:46:48.031Z,3.23
2024-05-09T12:49:35.010Z,2.93
2024-05-09T12:52:21.298Z,4.50
2024-05-09T12:55:08.259Z,4.10
2024-05-09T12:57:54.600Z,4.10
2024-05-09T13:00:41.086Z,6.70
2024-05-09T13:03:27.624Z,2.83
2024-05-09T13:06:14.064Z,3.20
2024-05-09T13:09:00.740Z,3.33
2024-05-09T13:11:47.594Z,2.70
2024-05-09T13:14:34.337Z,3.93
2024-05-09T13:17:20.706Z,3.67
2024-05-09T13:20:11.982Z,2.30
2024-05-09T13:23:06.724Z,2.67
2024-05-09T13:25:54.312Z,3.30
2024-05-09T13:28:41.220Z,2.80
2024-05-09T13:31:27.589Z,3.73
2024-05-09T13:34:14.201Z,2.60
2024-05-09T13:37:00.883Z,3.77
2024-05-09T13:39:47.168Z,10.23
2024-05-09T13:42:33.902Z,2.70
2024-05-09T13:45:20.616Z,5.00
2024-05-09T13:48:09.554Z,2.90
2024-05-09T13:50:56.027Z,3.67
2024-05-09T13:53:42.336Z,3.67
2024-05-09T13:56:28.940Z,3.20
2024-05-09T13:59:15.612Z,2.07
2024-05-09T14:02:02.508Z,4.27
2024-05-09T14:04:49.090Z,2.80
2024-05-09T14:07:35.520Z,3.73
2024-05-09T14:10:28.485Z,3.70
2024-05-09T14:13:17.407Z,2.40
2024-05-09T14:16:04.132Z,2.93
2024-05-09T14:18:50.377Z,3.80
2024-05-09T14:21:37.130Z,4.23
2024-05-09T14:24:23.728Z,2.53
2024-05-09T14:27:10.308Z,3.80
2024-05-09T14:29:57.008Z,4.33
2024-05-09T14:32:43.670Z,3.73
2024-05-09T14:35:30.411Z,3.87
2024-05-09T14:38:17.039Z,3.30
2024-05-09T14:41:03.989Z,5.23
2024-05-09T14:43:50.483Z,2.90
2024-05-09T14:46:36.948Z,3.43
2024-05-09T14:49:23.605Z,3.43
2024-05-09T14:52:10.312Z,2.37
2024-05-09T14:55:00.348Z,3.70
2024-05-09T14:57:47.543Z,4.10
2024-05-09T15:00:36.693Z,3.03
2024-05-09T15:03:24.303Z,2.93
2024-05-09T15:06:10.982Z,4.00
2024-05-09T15:08:57.802Z,5.63
2024-05-09T15:11:44.221Z,4.57
2024-05-09T15:14:30.579Z,5.73
2024-05-09T15:17:17.339Z,4.73
2024-05-09T15:20:09.092Z,4.30
2024-05-09T15:22:56.392Z,2.50
2024-05-09T15:25:44.718Z,3.83
2024-05-09T15:28:31.285Z,4.57
2024-05-09T15:31:18.144Z,3.97
2024-05-09T15:34:05.102Z,4.07
2024-05-09T15:36:51.752Z,3.97
2024-05-09T15:39:38.352Z,2.73
2024-05-09T15:42:24.866Z,2.70
2024-05-09T15:45:11.355Z,5.23
2024-05-09T15:47:58.556Z,2.63
2024-05-09T15:50:45.389Z,2.90
2024-05-09T15:53:31.845Z,4.43
2024-05-09T15:56:18.479Z,3.07
2024-05-09T15:59:04.957Z,9.37
2024-05-09T16:01:51.501Z,2.97
2024-05-09T16:04:38.400Z,2.73
2024-05-09T16:07:25.178Z,2.73
2024-05-09T16:10:19.701Z,2.53
2024-05-09T16:13:07.014Z,3.33
2024-05-09T16:15:54.130Z,5.97
2024-05-09T16:18:40.885Z,4.13
2024-05-09T16:21:27.066Z,3.87
2024-05-09T16:24:13.877Z,3.67
2024-05-09T16:27:00.318Z,2.70
2024-05-09T16:29:46.699Z,4.10
2024-05-09T16:32:33.545Z,2.87
2024-05-09T16:35:19.883Z,3.10
2024-05-09T16:38:06.973Z,4.10
2024-05-09T16:40:53.879Z,3.23
2024-05-09T16:43:40.284Z,3.73
2024-05-09T16:46:28.134Z,1.80
2024-05-09T16:49:14.539Z,5.47
2024-05-09T16:52:00.819Z,5.63
2024-05-09T16:54:47.475Z,2.60
2024-05-09T16:57:34.135Z,2.83
2024-05-09T17:00:31.099Z,3.93
2024-05-09T17:03:25.772Z,2.43
2024-05-09T17:06:12.294Z,7.00
2024-05-09T17:09:07.970Z,2.50
2024-05-09T17:11:57.942Z,3.40
2024-05-09T17:14:45.200Z,2.63
2024-05-09T17:17:31.695Z,3.77
2024-05-09T17:20:28.900Z,2.53
2024-05-09T17:23:20.249Z,2.60
2024-05-09T17:26:06.600Z,3.60
2024-05-09T17:28:53.271Z,3.70
2024-05-09T17:31:39.791Z,3.03
2024-05-09T17:34:26.986Z,7.97
2024-05-09T17:37:13.804Z,3.53
2024-05-09T17:40:00.385Z,4.47
2024-05-09T17:42:46.864Z,3.27
2024-05-09T17:45:33.826Z,2.30
2024-05-09T17:48:20.853Z,3.53
2024-05-09T17:51:07.401Z,2.83
2024-05-09T17:53:53.960Z,3.43
2024-05-09T17:56:40.839Z,2.87
2024-05-09T17:59:28.264Z,2.67
2024-05-09T18:02:14.931Z,2.37
2024-05-09T18:05:01.811Z,2.57
2024-05-09T18:07:48.380Z,3.20
2024-05-09T18:10:38.545Z,2.93
2024-05-09T18:13:26.857Z,3.23
2024-05-09T18:16:14.009Z,3.73
2024-05-09T18:19:00.587Z,3.90
2024-05-09T18:21:46.936Z,2.87
2024-05-09T18:24:33.707Z,3.47
2024-05-09T18:27:20.430Z,3.00
2024-05-09T18:30:21.224Z,1.93
2024-05-09T18:33:14.547Z,3.80
2024-05-09T18:36:01.756Z,6.20
2024-05-09T18:38:49.323Z,5.27
2024-05-09T18:41:35.702Z,4.10
2024-05-09T18:44:22.288Z,3.63
2024-05-09T18:47:10.394Z,5.77
2024-05-09T18:49:57.014Z,5.07
2024-05-09T18:52:43.600Z,5.13
2024-05-09T18:55:30.141Z,2.67
2024-05-09T18:58:17.719Z,4.13
2024-05-09T19:01:04.493Z,3.27
2024-05-09T19:03:51.495Z,3.60
2024-05-09T19:06:38.870Z,5.83
2024-05-09T19:09:25.144Z,4.13
2024-05-09T19:12:12.092Z,3.70
2024-05-09T19:14:58.451Z,4.33
2024-05-09T19:17:45.115Z,3.20
2024-05-09T19:20:34.670Z,23.77
2024-05-09T19:23:22.851Z,3.30
2024-05-09T19:26:09.931Z,3.20
2024-05-09T19:28:56.633Z,3.83
2024-05-09T19:31:43.290Z,2.60
2024-05-09T19:34:29.869Z,2.80
2024-05-09T19:37:16.465Z,3.97
2024-05-09T19:40:03.516Z,3.50
2024-05-09T19:42:52.097Z,2.80
2024-05-09T19:45:38.890Z,3.63
2024-05-09T19:48:25.453Z,3.20
2024-05-09T19:51:12.039Z,4.13
2024-05-09T19:53:58.644Z,3.87
2024-05-09T19:56:45.359Z,4.00
2024-05-09T19:59:31.858Z,6.23
2024-05-09T20:02:18.518Z,6.17
2024-05-09T20:05:05.611Z,5.90
2024-05-09T20:07:51.949Z,7.20
2024-05-09T20:10:38.998Z,4.63
2024-05-09T20:13:25.348Z,6.70
2024-05-09T20:16:12.003Z,5.47
2024-05-09T20:18:58.733Z,5.60
2024-05-09T20:21:45.436Z,6.43
2024-05-09T20:24:31.944Z,6.70
2024-05-09T20:27:18.313Z,5.90
2024-05-09T20:30:09.748Z,7.50
2024-05-09T20:32:58.479Z,6.60
2024-05-09T20:35:45.239Z,5.30
2024-05-09T20:38:31.393Z,10.47
2024-05-09T20:41:18.079Z,5.63
2024-05-09T20:44:04.839Z,4.63
2024-05-09T20:46:51.114Z,8.13
2024-05-09T20:49:37.991Z,6.30
2024-05-09T20:52:24.658Z,6.53
2024-05-09T20:55:10.948Z,9.77
2024-05-09T20:57:57.945Z,8.30
2024-05-09T21:00:46.082Z,6.53
2024-05-09T21:03:38.095Z,7.73
2024-05-09T21:06:24.327Z,5.43
2024-05-09T21:09:10.876Z,4.67
2024-05-09T21:11:57.581Z,5.40
2024-05-09T21:14:44.498Z,4.17
2024-05-09T21:17:31.232Z,6.47
2024-05-09T21:20:23.905Z,4.20
2024-05-09T21:23:15.570Z,5.60
2024-05-09T21:26:02.098Z,5.13
2024-05-09T21:28:48.657Z,6.23
2024-05-09T21:31:35.630Z,5.03
2024-05-09T21:34:22.273Z,6.33
2024-05-09T21:37:08.854Z,6.73
2024-05-09T21:39:55.439Z,7.50
2024-05-09T21:42:42.112Z,6.37
2024-05-09T21:45:28.648Z,4.27
2024-05-09T21:48:15.548Z,4.10
2024-05-09T21:51:01.846Z,8.17
2024-05-09T21:53:49.035Z,6.17
2024-05-09T21:56:35.279Z,5.63
2024-05-09T21:59:22.008Z,6.57
2024-05-09T22:02:09.098Z,6.23
2024-05-09T22:04:56.208Z,9.97
2024-05-09T22:07:43.060Z,6.33
2024-05-09T22:10:34.262Z,6.43
2024-05-09T22:13:22.936Z,6.73
2024-05-09T22:16:09.589Z,3.97
2024-05-09T22:18:56.530Z,5.67
2024-05-09T22:21:43.024Z,5.27
2024-05-09T22:24:29.234Z,7.00
2024-05-09T22:27:15.729Z,4.97
2024-05-09T22:30:02.830Z,7.47
2024-05-09T22:32:50.283Z,5.47
2024-05-09T22:35:36.984Z,6.57
2024-05-09T22:38:23.819Z,6.93
2024-05-09T22:41:10.354Z,4.67
2024-05-09T22:43:57.107Z,6.73
2024-05-09T22:46:43.614Z,8.30
2024-05-09T22:49:29.915Z,4.80
2024-05-09T22:52:16.709Z,8.57
2024-05-09T22:55:03.656Z,5.90
2024-05-09T22:57:50.334Z,4.97
2024-05-09T23:00:37.157Z,8.03
2024-05-09T23:03:23.758Z,5.17
2024-05-09T23:06:10.289Z,13.43
2024-05-09T23:08:56.847Z,5.77
2024-05-09T23:11:45.114Z,6.63
2024-05-09T23:14:31.603Z,6.90
2024-05-09T23:17:19.280Z,8.13
2024-05-09T23:20:08.877Z,6.03
2024-05-09T23:22:57.645Z,7.43
2024-05-09T23:25:44.653Z,6.77
2024-05-09T23:28:31.735Z,6.57
2024-05-09T23:31:18.257Z,5.37
2024-05-09T23:34:04.971Z,7.83
2024-05-09T23:36:51.437Z,6.27
2024-05-09T23:39:38.065Z,5.60
2024-05-09T23:42:24.754Z,6.23
2024-05-09T23:45:11.247Z,6.33
2024-05-09T23:47:57.972Z,7.47
2024-05-09T23:50:44.479Z,5.73
2024-05-09T23:53:31.035Z,7.63
2024-05-09T23:56:18.612Z,5.37
2024-05-09T23:59:05.167Z,5.60
